Hawkesbury, Canada
Current Conditions -  °F | °C
As of 1:00 PM on Sunday 25 Jan 2015 (Local Time) from CYMX Reporting Station
Few Clouds Few Clouds  
Wind Chill: -5°   Ceiling: Unl
Heat Index:   Visibility: 45mi
Dew Point: -8°   Wind: 9mph
Humidity: 48%   Direction: 300°WNW
Pressure: 29.83"   Gusts: NA
Location:  45.61°N, 74.61°W
Report Text: CYMX 251800Z 30008KT 250V330 45SM FEW030 M13/M22 A2983 RMK SC1 SC TR SLP106
Loading
Personal Weather Stations






























Interactive Weather Map New forecast layout! Learn more

10-Day Weather Forecast

Advertisements
Track Severe Weather on mobile